Time;durP1;ratioP1;P1;durP2;ratioP2;P2;SDS_P1;SDS_P2;PMS_P1;PMS_P2;Temp;Humidity;BMP_temperature;BMP_pressure;BME280_temperature;BME280_humidity;BME280_pressure;Samples;Min_cycle;Max_cycle;Signal;HPM_P1;HPM_P2
2021/12/05 00:19:52;;;;;;;;;;;;;;;2.97;100.00;99703.63;5048211;28;19932;-51
2021/12/05 00:22:23;;;;;;;;;;;;;;;2.98;100.00;99704.44;5051479;28;19929;-55
2021/12/05 00:24:53;;;;;;;;;;;;;;;2.93;100.00;99704.69;5040286;28;19971;-56
2021/12/05 00:27:25;;;;;;;;;;;;;;;2.95;100.00;99704.63;5051534;28;20379;-56
2021/12/05 00:32:38;;;;;;;;;;;;;;;3.00;100.00;99716.44;5081860;28;19928;-56
2021/12/05 00:35:41;;;;;;;;;;;;;;;2.88;100.00;99710.09;5043180;28;20383;-54
2021/12/05 00:43:47;;;;;;;;;;;;;;;2.76;100.00;99712.50;5071744;28;19936;-51
2021/12/05 00:46:47;;;;;;;;;;;;;;;2.75;100.00;99703.03;5031259;28;19933;-52
2021/12/05 01:07:54;;;;;;;;;;;;;;;2.61;100.00;99701.13;5046504;28;19932;-51
2021/12/05 01:13:30;;;;;;;;;;;;;;;2.63;100.00;99714.88;5028552;28;20351;-56
2021/12/05 01:15:58;;;;;;;;;;;;;;;2.62;100.00;99708.84;5034623;28;20281;-53
2021/12/05 01:18:25;;;;;;;;;;;;;;;2.55;100.00;99715.25;5034827;28;19932;-56
2021/12/05 01:20:56;;;;;;;;;;;;;;;2.56;100.00;99708.31;5034102;28;19925;-57
2021/12/05 01:23:33;;;;;;;;;;;;;;;2.57;100.00;99712.59;5031641;28;19932;-55
2021/12/05 01:26:10;;;;;;;;;;;;;;;2.56;100.00;99706.53;5031826;28;19929;-56
2021/12/05 01:34:25;;;;;;;;;;;;;;;2.56;100.00;99713.50;5063485;28;19933;-56
2021/12/05 01:47:33;;;;;;;;;;;;;;;2.57;100.00;99721.22;5031261;28;19988;-56
2021/12/05 01:50:32;;;;;;;;;;;;;;;2.54;100.00;99722.19;5031414;28;19996;-54
2021/12/05 02:41:23;;;;;;;;;;;;;;;2.62;100.00;99739.13;5033324;28;19940;-52
2021/12/05 02:43:59;;;;;;;;;;;;;;;2.60;100.00;99739.22;5061041;28;19952;-48
2021/12/05 02:46:26;;;;;;;;;;;;;;;2.60;100.00;99736.63;5058423;28;19925;-53
2021/12/05 02:48:58;;;;;;;;;;;;;;;2.64;100.00;99751.13;5029055;28;19956;-51
2021/12/05 02:51:26;;;;;;;;;;;;;;;2.63;100.00;99743.41;5030235;28;20541;-50
2021/12/05 02:54:03;;;;;;;;;;;;;;;2.59;100.00;99747.94;5030610;28;19933;-52
2021/12/05 02:56:31;;;;;;;;;;;;;;;2.49;100.00;99750.13;5033388;28;19929;-49
2021/12/05 02:59:05;;;;;;;;;;;;;;;2.50;100.00;99746.63;5033123;28;19924;-52
2021/12/05 03:01:39;;;;;;;;;;;;;;;2.47;100.00;99754.56;5031245;28;19956;-52
2021/12/05 03:04:08;;;;;;;;;;;;;;;2.62;100.00;99752.13;5030277;28;19933;-51
2021/12/05 03:06:35;;;;;;;;;;;;;;;2.48;100.00;99748.47;5029844;28;19979;-49
2021/12/05 03:09:06;;;;;;;;;;;;;;;2.45;100.00;99750.38;5062279;28;19998;-50
2021/12/05 03:11:33;;;;;;;;;;;;;;;2.42;100.00;99746.16;5029826;28;19925;-51
2021/12/05 03:13:59;;;;;;;;;;;;;;;2.44;100.00;99741.75;5031189;28;19935;-49
2021/12/05 03:16:27;;;;;;;;;;;;;;;2.50;100.00;99735.41;5032778;28;19925;-51
2021/12/05 03:18:54;;;;;;;;;;;;;;;2.44;100.00;99733.09;5030216;28;20024;-49
2021/12/05 03:21:21;;;;;;;;;;;;;;;2.48;100.00;99732.03;5061564;28;19937;-49
2021/12/05 03:23:49;;;;;;;;;;;;;;;2.44;100.00;99731.38;5061376;28;20012;-53
2021/12/05 03:26:17;;;;;;;;;;;;;;;2.34;100.00;99736.13;5062565;28;19925;-50
2021/12/05 03:28:44;;;;;;;;;;;;;;;2.30;100.00;99732.03;5032846;28;19929;-52
2021/12/05 03:31:11;;;;;;;;;;;;;;;2.33;100.00;99737.09;5030839;28;19932;-56
2021/12/05 03:33:38;;;;;;;;;;;;;;;2.29;100.00;99739.88;5029565;28;19929;-51
2021/12/05 03:36:05;;;;;;;;;;;;;;;2.28;100.00;99733.03;5064741;28;20368;-55
2021/12/05 03:38:33;;;;;;;;;;;;;;;2.25;100.00;99735.75;5032056;28;19929;-55
2021/12/05 03:40:59;;;;;;;;;;;;;;;2.23;100.00;99735.00;5030087;28;19986;-51
2021/12/05 03:43:26;;;;;;;;;;;;;;;2.19;100.00;99740.31;5030673;28;19980;-55
2021/12/05 03:45:54;;;;;;;;;;;;;;;2.22;100.00;99736.75;5032574;28;20299;-53
2021/12/05 03:48:21;;;;;;;;;;;;;;;2.19;100.00;99737.72;5032514;28;19925;-53
2021/12/05 03:50:49;;;;;;;;;;;;;;;2.18;100.00;99743.84;5031324;28;19933;-50
2021/12/05 03:53:16;;;;;;;;;;;;;;;2.17;100.00;99741.34;5063044;28;19941;-51
2021/12/05 03:55:44;;;;;;;;;;;;;;;2.19;100.00;99742.91;5061390;28;19933;-54
2021/12/05 03:58:11;;;;;;;;;;;;;;;2.23;100.00;99745.38;5031602;28;19926;-55
2021/12/05 04:00:44;;;;;;;;;;;;;;;2.18;100.00;99750.78;5032731;28;19929;-56
2021/12/05 04:03:12;;;;;;;;;;;;;;;2.16;100.00;99750.84;5032678;28;19925;-56
2021/12/05 04:05:39;;;;;;;;;;;;;;;2.23;100.00;99751.41;5031670;28;20023;-52
2021/12/05 04:08:07;;;;;;;;;;;;;;;2.20;100.00;99743.78;5029613;28;19925;-49
2021/12/05 04:10:35;;;;;;;;;;;;;;;2.24;100.00;99744.47;5029233;28;19929;-57
2021/12/05 04:13:02;;;;;;;;;;;;;;;2.26;100.00;99740.03;5029634;28;19926;-51
2021/12/05 04:15:28;;;;;;;;;;;;;;;2.28;100.00;99744.25;5030028;28;19975;-51
2021/12/05 04:17:55;;;;;;;;;;;;;;;2.27;100.00;99739.13;5029112;28;20016;-51
2021/12/05 04:20:22;;;;;;;;;;;;;;;2.26;100.00;99746.06;5029840;28;19925;-52
2021/12/05 04:22:48;;;;;;;;;;;;;;;2.28;100.00;99746.00;5030356;28;20399;-51
2021/12/05 04:25:16;;;;;;;;;;;;;;;2.34;100.00;99749.13;5029530;28;20285;-55
2021/12/05 04:27:44;;;;;;;;;;;;;;;2.39;100.00;99742.88;5027857;28;19925;-49
2021/12/05 04:30:11;;;;;;;;;;;;;;;2.39;100.00;99748.91;5027525;28;19979;-51
2021/12/05 04:32:38;;;;;;;;;;;;;;;2.40;100.00;99740.22;5027751;28;20415;-56
2021/12/05 04:35:05;;;;;;;;;;;;;;;2.38;100.00;99743.81;5033032;28;19925;-49
2021/12/05 04:37:32;;;;;;;;;;;;;;;2.42;100.00;99740.13;5035724;28;19971;-53
2021/12/05 04:39:58;;;;;;;;;;;;;;;2.41;100.00;99744.47;5035714;28;19929;-51
2021/12/05 04:42:25;;;;;;;;;;;;;;;2.41;100.00;99749.66;5035376;28;19932;-56
2021/12/05 04:44:52;;;;;;;;;;;;;;;2.42;100.00;99747.94;5067574;28;20450;-53
2021/12/05 04:47:18;;;;;;;;;;;;;;;2.44;100.00;99753.88;5034943;28;19944;-56
2021/12/05 04:49:46;;;;;;;;;;;;;;;2.44;100.00;99752.13;5064235;28;19928;-52
2021/12/05 04:52:13;;;;;;;;;;;;;;;2.46;100.00;99749.47;5032546;28;19925;-50
2021/12/05 04:54:40;;;;;;;;;;;;;;;2.49;100.00;99749.31;5048296;28;20384;-56
2021/12/05 04:57:07;;;;;;;;;;;;;;;2.47;100.00;99748.56;5035114;28;19925;-52
2021/12/05 04:59:36;;;;;;;;;;;;;;;2.51;100.00;99748.31;5031698;28;19961;-57
2021/12/05 05:02:04;;;;;;;;;;;;;;;2.53;100.00;99748.22;5033139;28;20388;-51
2021/12/05 05:04:38;;;;;;;;;;;;;;;2.52;100.00;99756.94;5035374;28;20499;-50
2021/12/05 05:07:07;;;;;;;;;;;;;;;2.55;100.00;99759.41;5065565;28;19944;-50
2021/12/05 05:09:34;;;;;;;;;;;;;;;2.59;100.00;99757.47;5035102;28;19929;-58
2021/12/05 05:12:00;;;;;;;;;;;;;;;2.67;100.00;99755.34;5033916;28;20414;-54
2021/12/05 05:14:27;;;;;;;;;;;;;;;2.67;100.00;99758.78;5066911;28;19925;-53
2021/12/05 05:16:55;;;;;;;;;;;;;;;2.66;100.00;99762.28;5035208;28;19925;-56
2021/12/05 05:19:33;;;;;;;;;;;;;;;2.66;100.00;99770.09;5033684;28;20304;-51
2021/12/05 05:25:00;;;;;;;;;;;;;;;2.64;100.00;99763.28;5032282;28;19936;-52
2021/12/05 05:44:05;;;;;;;;;;;;;;;2.75;100.00;99786.13;5034384;28;19925;-55
2021/12/05 05:46:49;;;;;;;;;;;;;;;2.79;100.00;99791.06;5035236;28;19925;-48
2021/12/05 05:51:43;;;;;;;;;;;;;;;2.82;100.00;99796.13;5031156;28;19937;-48
2021/12/05 05:54:10;;;;;;;;;;;;;;;2.85;100.00;99793.38;5031734;28;19933;-50
2021/12/05 05:56:38;;;;;;;;;;;;;;;2.96;100.00;99802.38;5032431;28;19979;-54
2021/12/05 05:59:13;;;;;;;;;;;;;;;2.84;100.00;99796.88;5032915;28;20368;-54
2021/12/05 06:04:10;;;;;;;;;;;;;;;2.88;100.00;99806.22;5034032;28;19929;-52
2021/12/05 06:06:36;;;;;;;;;;;;;;;2.84;100.00;99803.84;5034008;28;19951;-49
2021/12/05 06:09:03;;;;;;;;;;;;;;;2.86;100.00;99802.84;5033638;28;19929;-51
2021/12/05 06:11:30;;;;;;;;;;;;;;;2.87;100.00;99801.09;5031610;28;20009;-57
2021/12/05 06:13:57;;;;;;;;;;;;;;;2.85;100.00;99808.09;5031609;28;19925;-54
2021/12/05 06:16:23;;;;;;;;;;;;;;;2.87;100.00;99806.28;5030214;28;19925;-57
2021/12/05 06:18:50;;;;;;;;;;;;;;;2.84;100.00;99806.44;5029414;28;19929;-55
2021/12/05 06:21:17;;;;;;;;;;;;;;;2.82;100.00;99821.25;5030876;28;20391;-51
2021/12/05 06:23:43;;;;;;;;;;;;;;;2.92;100.00;99819.03;5031848;28;19929;-56
2021/12/05 06:26:12;;;;;;;;;;;;;;;2.85;100.00;99816.75;5033553;28;19975;-49
2021/12/05 06:28:44;;;;;;;;;;;;;;;2.92;100.00;99824.22;5033761;28;19932;-56
2021/12/05 06:31:27;;;;;;;;;;;;;;;2.88;100.00;99826.97;5064581;28;19925;-49
2021/12/05 06:47:22;;;;;;;;;;;;;;;2.92;100.00;99842.41;5030363;28;19932;-51
2021/12/05 06:49:49;;;;;;;;;;;;;;;2.95;100.00;99844.88;5030223;28;20312;-56
2021/12/05 06:52:36;;;;;;;;;;;;;;;2.98;100.00;99842.94;5033427;28;19925;-55
2021/12/05 06:55:03;;;;;;;;;;;;;;;2.99;100.00;99846.41;5033214;28;20910;-57
2021/12/05 06:57:29;;;;;;;;;;;;;;;2.87;100.00;99846.06;5029428;28;19932;-56
2021/12/05 06:59:56;;;;;;;;;;;;;;;2.95;100.00;99845.72;5030320;28;19925;-57
2021/12/05 07:02:23;;;;;;;;;;;;;;;2.94;100.00;99851.81;5061757;28;19925;-53
2021/12/05 07:05:14;;;;;;;;;;;;;;;2.95;100.00;99852.66;5030278;28;20024;-52
2021/12/05 07:07:41;;;;;;;;;;;;;;;3.01;100.00;99855.81;5029599;28;19926;-53
2021/12/05 07:10:09;;;;;;;;;;;;;;;2.97;100.00;99861.22;5032242;28;19925;-54
2021/12/05 07:13:27;;;;;;;;;;;;;;;2.96;100.00;99862.97;5033026;28;19932;-52
2021/12/05 07:23:57;;;;;;;;;;;;;;;2.99;100.00;99870.63;5032005;28;19925;-52
2021/12/05 07:42:45;;;;;;;;;;;;;;;2.85;100.00;99884.28;5029173;28;19925;-46
2021/12/05 07:45:16;;;;;;;;;;;;;;;2.85;100.00;99888.63;5029838;28;19926;-54
2021/12/05 07:47:46;;;;;;;;;;;;;;;2.87;100.00;99892.00;5032827;28;19952;-48
2021/12/05 07:50:13;;;;;;;;;;;;;;;2.85;100.00;99893.81;5032551;28;20000;-55
2021/12/05 07:52:43;;;;;;;;;;;;;;;2.86;100.00;99898.09;5031786;28;19929;-55
2021/12/05 08:00:54;;;;;;;;;;;;;;;2.83;100.00;99899.09;5031144;28;20312;-50
2021/12/05 08:14:52;;;;;;;;;;;;;;;2.90;100.00;99922.19;5031408;28;19929;-53
2021/12/05 08:17:20;;;;;;;;;;;;;;;2.88;100.00;99925.69;5035789;28;20023;-57
2021/12/05 08:19:47;;;;;;;;;;;;;;;2.90;100.00;99928.19;5035568;28;20296;-56
2021/12/05 08:22:14;;;;;;;;;;;;;;;2.91;100.00;99929.06;5033084;28;19929;-51
2021/12/05 08:24:42;;;;;;;;;;;;;;;2.96;100.00;99934.84;5033136;28;19979;-51
2021/12/05 08:27:10;;;;;;;;;;;;;;;2.98;100.00;99943.44;5034619;28;19948;-51
2021/12/05 08:29:54;;;;;;;;;;;;;;;2.98;100.00;99946.84;5035848;28;19925;-52
2021/12/05 08:32:55;;;;;;;;;;;;;;;2.93;100.00;99948.00;5035177;28;19955;-54
2021/12/05 08:35:19;;;;;;;;;;;;;;;2.98;100.00;99956.41;5033044;28;19925;-56
2021/12/05 08:45:58;;;;;;;;;;;;;;;3.11;100.00;99967.91;5061961;28;19979;-51
2021/12/05 09:24:44;;;;;;;;;;;;;;;3.12;100.00;100016.38;5013308;28;19932;-55
2021/12/05 10:03:11;;;;;;;;;;;;;;;3.27;100.00;100073.72;5030724;28;19952;-53
2021/12/05 10:38:39;;;;;;;;;;;;;;;3.52;100.00;100102.84;5068658;28;19932;-56
2021/12/05 10:43:42;;;;;;;;;;;;;;;3.65;100.00;100103.09;5070901;28;19925;-49
2021/12/05 10:46:10;;;;;;;;;;;;;;;3.66;100.00;100106.56;5070969;28;19971;-54
2021/12/05 10:48:41;;;;;;;;;;;;;;;3.80;100.00;100109.31;5068708;28;19932;-55
2021/12/05 10:51:19;;;;;;;;;;;;;;;3.75;100.00;100115.66;5068459;28;19967;-55
2021/12/05 10:53:53;;;;;;;;;;;;;;;3.88;100.00;100112.38;5068096;28;20387;-52
2021/12/05 10:56:21;;;;;;;;;;;;;;;4.02;100.00;100121.28;5067451;28;20072;-55
2021/12/05 10:59:00;;;;;;;;;;;;;;;4.03;100.00;100123.78;5051125;28;19940;-53
2021/12/05 11:01:33;;;;;;;;;;;;;;;4.03;100.00;100117.75;5043763;28;20027;-54
2021/12/05 11:04:08;;;;;;;;;;;;;;;4.20;100.00;100125.56;5029747;28;19975;-46
2021/12/05 11:06:39;;;;;;;;;;;;;;;4.24;100.00;100126.28;5028713;28;19925;-47
2021/12/05 11:09:06;;;;;;;;;;;;;;;4.28;100.00;100126.94;5029402;28;20307;-48
2021/12/05 11:11:33;;;;;;;;;;;;;;;4.34;100.00;100129.25;5030324;28;19925;-54
2021/12/05 11:14:02;;;;;;;;;;;;;;;4.32;100.00;100133.69;5062021;28;20454;-48
2021/12/05 11:16:37;;;;;;;;;;;;;;;4.30;100.00;100138.13;5060019;28;19931;-47
2021/12/05 11:19:14;;;;;;;;;;;;;;;4.37;100.00;100136.91;5029931;28;19983;-48
2021/12/05 11:21:47;;;;;;;;;;;;;;;4.31;100.00;100139.78;5029954;28;19925;-51
2021/12/05 11:24:16;;;;;;;;;;;;;;;4.29;100.00;100144.25;5060127;28;19932;-56
2021/12/05 11:26:44;;;;;;;;;;;;;;;4.36;100.00;100145.63;5029897;28;20376;-53
2021/12/05 11:29:11;;;;;;;;;;;;;;;4.37;100.00;100152.53;5031142;28;19925;-57
2021/12/05 11:31:38;;;;;;;;;;;;;;;4.41;100.00;100143.63;5060485;28;19940;-56
2021/12/05 11:34:05;;;;;;;;;;;;;;;4.37;100.00;100152.53;5029576;28;19932;-57
2021/12/05 11:36:34;;;;;;;;;;;;;;;4.36;100.00;100159.50;5030663;28;20273;-53
2021/12/05 11:39:18;;;;;;;;;;;;;;;4.44;100.00;100164.31;5062006;28;19929;-48
2021/12/05 11:41:45;;;;;;;;;;;;;;;4.39;100.00;100166.28;5032182;28;19932;-57
2021/12/05 11:44:15;;;;;;;;;;;;;;;4.51;100.00;100173.50;5068784;28;19932;-51
2021/12/05 11:46:44;;;;;;;;;;;;;;;4.52;100.00;100166.53;5035158;28;19971;-52
2021/12/05 11:49:13;;;;;;;;;;;;;;;4.43;100.00;100173.06;5035942;28;20027;-50
2021/12/05 11:51:44;;;;;;;;;;;;;;;4.44;100.00;100171.28;5038607;28;19931;-55
2021/12/05 11:54:18;;;;;;;;;;;;;;;4.43;100.00;100170.44;5036592;28;19931;-56
2021/12/05 11:57:07;;;;;;;;;;;;;;;4.43;100.00;100178.25;5037174;28;19929;-54
2021/12/05 11:59:35;;;;;;;;;;;;;;;4.30;100.00;100183.22;5039186;28;19925;-55
2021/12/05 12:02:02;;;;;;;;;;;;;;;4.30;100.00;100183.22;5036167;28;19929;-53
2021/12/05 12:04:38;;;;;;;;;;;;;;;4.28;100.00;100179.00;5035334;28;19948;-48
2021/12/05 12:07:17;;;;;;;;;;;;;;;4.26;100.00;100181.69;5035992;28;19925;-56
2021/12/05 12:09:44;;;;;;;;;;;;;;;4.43;100.00;100180.88;5069774;28;19925;-56
2021/12/05 12:12:11;;;;;;;;;;;;;;;4.38;100.00;100185.44;5039060;28;19972;-49
2021/12/05 12:14:38;;;;;;;;;;;;;;;4.41;100.00;100185.28;5038935;28;19925;-47
2021/12/05 12:17:09;;;;;;;;;;;;;;;4.55;100.00;100195.00;5038947;28;19925;-49
2021/12/05 12:19:36;;;;;;;;;;;;;;;4.54;100.00;100194.19;5039033;28;19925;-55
2021/12/05 12:22:04;;;;;;;;;;;;;;;4.55;100.00;100197.63;5069544;28;19956;-53
2021/12/05 12:24:31;;;;;;;;;;;;;;;4.60;100.00;100202.63;5036114;28;20388;-54
2021/12/05 12:26:58;;;;;;;;;;;;;;;4.53;100.00;100200.31;5038385;28;20016;-46
2021/12/05 12:29:26;;;;;;;;;;;;;;;4.72;100.00;100209.81;5034370;28;19955;-56
2021/12/05 12:31:53;;;;;;;;;;;;;;;4.64;100.00;100201.53;5067119;28;20047;-49
2021/12/05 12:34:20;;;;;;;;;;;;;;;4.55;100.00;100203.69;5067759;28;19925;-56
2021/12/05 12:36:51;;;;;;;;;;;;;;;4.54;100.00;100206.34;5036491;28;19929;-55
2021/12/05 12:39:21;;;;;;;;;;;;;;;4.54;100.00;100201.13;5037420;28;19925;-55
2021/12/05 12:42:15;;;;;;;;;;;;;;;4.54;100.00;100202.00;5036519;28;20011;-46
2021/12/05 12:45:01;;;;;;;;;;;;;;;4.55;100.00;100206.28;5035147;28;19936;-55
2021/12/05 12:47:35;;;;;;;;;;;;;;;4.57;100.00;100208.81;5068775;28;19925;-56
2021/12/05 12:50:19;;;;;;;;;;;;;;;4.47;100.00;100215.38;5036676;28;19925;-52
2021/12/05 12:52:59;;;;;;;;;;;;;;;4.49;100.00;100221.38;5036015;28;20534;-51
2021/12/05 12:55:27;;;;;;;;;;;;;;;4.46;100.00;100217.16;5035784;28;19932;-52
2021/12/05 12:57:54;;;;;;;;;;;;;;;4.51;100.00;100220.38;5034506;28;19987;-55
2021/12/05 13:00:24;;;;;;;;;;;;;;;4.51;100.00;100227.34;5063909;28;20396;-51
2021/12/05 13:03:13;;;;;;;;;;;;;;;4.50;100.00;100231.72;5050295;28;19932;-56
2021/12/05 13:05:53;;;;;;;;;;;;;;;4.41;100.00;100234.75;5035520;28;19987;-57
2021/12/05 13:11:09;;;;;;;;;;;;;;;4.39;100.00;100244.41;5046968;28;19951;-53
2021/12/05 13:13:36;;;;;;;;;;;;;;;4.35;100.00;100240.25;5042752;28;20003;-52
2021/12/05 13:16:19;;;;;;;;;;;;;;;4.34;100.00;100238.59;5051758;28;19970;-57
2021/12/05 13:18:48;;;;;;;;;;;;;;;4.34;100.00;100236.00;5051384;28;20635;-53
2021/12/05 13:21:16;;;;;;;;;;;;;;;4.46;100.00;100238.00;5052333;28;19925;-52
2021/12/05 13:23:47;;;;;;;;;;;;;;;4.38;100.00;100248.78;5054340;28;19931;-56
2021/12/05 13:26:33;;;;;;;;;;;;;;;4.45;100.00;100253.69;5053413;28;19924;-49
2021/12/05 13:29:18;;;;;;;;;;;;;;;4.47;100.00;100250.09;5052352;28;19928;-53
2021/12/05 13:31:47;;;;;;;;;;;;;;;4.48;100.00;100254.38;5051486;28;19925;-53
2021/12/05 13:34:16;;;;;;;;;;;;;;;4.52;100.00;100250.69;5051909;28;19925;-57
2021/12/05 13:36:44;;;;;;;;;;;;;;;4.54;100.00;100255.81;5054980;28;20338;-53
2021/12/05 13:39:49;;;;;;;;;;;;;;;4.55;100.00;100263.59;5053648;28;19924;-57
2021/12/05 13:42:42;;;;;;;;;;;;;;;4.59;100.00;100269.47;5060953;28;19979;-57
2021/12/05 13:45:08;;;;;;;;;;;;;;;4.63;100.00;100270.16;5052925;28;19932;-57
2021/12/05 13:47:42;;;;;;;;;;;;;;;4.67;100.00;100267.31;5050803;28;19932;-49
2021/12/05 13:50:18;;;;;;;;;;;;;;;4.70;100.00;100277.63;5084083;28;19936;-56
2021/12/05 13:52:53;;;;;;;;;;;;;;;4.69;100.00;100288.94;5053990;28;19929;-51
2021/12/05 13:55:41;;;;;;;;;;;;;;;4.65;100.00;100292.63;5086531;28;20605;-51
2021/12/05 13:58:28;;;;;;;;;;;;;;;4.71;100.00;100307.09;5052824;28;19932;-57
2021/12/05 14:01:15;;;;;;;;;;;;;;;4.76;100.00;100294.69;5050664;28;20312;-55
2021/12/05 14:04:00;;;;;;;;;;;;;;;4.81;100.00;100305.72;5050240;28;19936;-56
2021/12/05 14:06:53;;;;;;;;;;;;;;;4.75;100.00;100313.84;5049789;28;20334;-54
2021/12/05 14:09:31;;;;;;;;;;;;;;;4.73;100.00;100318.28;5051668;28;19964;-56
2021/12/05 14:12:00;;;;;;;;;;;;;;;4.75;100.00;100329.47;5051192;28;19929;-56
2021/12/05 14:14:31;;;;;;;;;;;;;;;4.62;100.00;100329.25;5065185;28;19932;-54
2021/12/05 14:16:58;;;;;;;;;;;;;;;4.63;100.00;100341.34;5050838;28;20288;-56
2021/12/05 14:19:27;;;;;;;;;;;;;;;4.63;100.00;100351.75;5067605;28;20428;-56
2021/12/05 14:21:54;;;;;;;;;;;;;;;4.61;100.00;100347.53;5053776;28;19924;-56
2021/12/05 14:24:22;;;;;;;;;;;;;;;4.56;100.00;100361.63;5053924;28;19929;-56
2021/12/05 14:26:50;;;;;;;;;;;;;;;4.54;100.00;100366.06;5053914;28;19929;-56
2021/12/05 14:29:18;;;;;;;;;;;;;;;4.50;100.00;100372.34;5053909;28;19970;-56
2021/12/05 14:31:52;;;;;;;;;;;;;;;4.48;100.00;100376.78;5051467;28;19975;-51
2021/12/05 14:34:19;;;;;;;;;;;;;;;4.49;100.00;100383.66;5050366;28;19929;-52
2021/12/05 14:36:47;;;;;;;;;;;;;;;4.49;100.00;100386.28;5082298;28;20342;-50
2021/12/05 14:39:22;;;;;;;;;;;;;;;4.49;100.00;100382.84;5053676;28;20023;-49
2021/12/05 14:41:50;;;;;;;;;;;;;;;4.49;100.00;100386.28;5068794;28;20311;-56
2021/12/05 14:44:18;;;;;;;;;;;;;;;4.52;100.00;100393.09;5085286;28;19925;-51
2021/12/05 14:46:46;;;;;;;;;;;;;;;4.45;100.00;100395.16;5050592;28;19982;-57
2021/12/05 14:49:14;;;;;;;;;;;;;;;4.38;100.00;100396.34;5050600;28;19925;-53
2021/12/05 14:51:41;;;;;;;;;;;;;;;4.40;100.00;100403.19;5049602;28;19929;-51
2021/12/05 14:54:07;;;;;;;;;;;;;;;4.31;100.00;100401.00;5051669;28;19925;-56
2021/12/05 14:56:36;;;;;;;;;;;;;;;4.35;100.00;100412.09;5053095;28;19929;-56
2021/12/05 14:59:05;;;;;;;;;;;;;;;4.38;100.00;100417.19;5053002;28;19990;-57
2021/12/05 15:01:32;;;;;;;;;;;;;;;4.37;100.00;100418.94;5051869;28;19924;-56
2021/12/05 15:04:00;;;;;;;;;;;;;;;4.40;100.00;100433.56;5051908;28;19925;-55
2021/12/05 15:06:35;;;;;;;;;;;;;;;4.31;100.00;100429.63;5051592;28;20445;-56
2021/12/05 15:09:03;;;;;;;;;;;;;;;4.27;100.00;100437.66;5082259;28;19929;-56
2021/12/05 15:11:31;;;;;;;;;;;;;;;4.25;100.00;100436.88;5049461;28;19925;-49
2021/12/05 15:14:04;;;;;;;;;;;;;;;4.31;100.00;100444.41;5049805;28;19932;-55
2021/12/05 15:16:31;;;;;;;;;;;;;;;4.26;100.00;100451.59;5048530;28;19931;-56
2021/12/05 15:18:58;;;;;;;;;;;;;;;4.30;100.00;100453.16;5049285;28;19934;-56
2021/12/05 15:21:27;;;;;;;;;;;;;;;4.29;100.00;100454.06;5049744;28;20462;-54
2021/12/05 15:23:54;;;;;;;;;;;;;;;4.30;100.00;100463.56;5050324;28;20447;-55
2021/12/05 15:26:21;;;;;;;;;;;;;;;4.29;100.00;100465.31;5049779;28;19925;-55
2021/12/05 15:28:48;;;;;;;;;;;;;;;4.34;100.00;100462.50;5050144;28;19925;-54
2021/12/05 15:31:41;;;;;;;;;;;;;;;4.28;100.00;100470.59;5051692;28;19924;-57
2021/12/05 15:34:18;;;;;;;;;;;;;;;4.23;100.00;100473.41;5049501;28;19932;-55
2021/12/05 15:36:45;;;;;;;;;;;;;;;4.26;100.00;100475.03;5051613;28;19925;-56
2021/12/05 15:39:12;;;;;;;;;;;;;;;4.27;100.00;100490.56;5052388;28;19925;-57
2021/12/05 15:41:39;;;;;;;;;;;;;;;4.23;100.00;100486.41;5048060;28;19929;-56
2021/12/05 15:44:05;;;;;;;;;;;;;;;4.15;100.00;100499.75;5050651;28;20016;-57
2021/12/05 15:46:32;;;;;;;;;;;;;;;4.11;100.00;100508.63;5050300;28;19954;-57
2021/12/05 15:48:59;;;;;;;;;;;;;;;4.12;100.00;100515.53;5049764;28;19931;-57
2021/12/05 15:51:25;;;;;;;;;;;;;;;4.14;100.00;100513.69;5048606;28;19925;-54
2021/12/05 15:53:52;;;;;;;;;;;;;;;4.09;100.00;100520.00;5051631;28;19925;-56
2021/12/05 15:56:22;;;;;;;;;;;;;;;4.12;100.00;100525.94;5052064;28;19924;-55
2021/12/05 15:59:00;;;;;;;;;;;;;;;4.09;100.00;100528.69;5066585;28;20380;-57
2021/12/05 16:01:27;;;;;;;;;;;;;;;4.08;100.00;100540.00;5051997;28;19925;-56
2021/12/05 16:04:02;;;;;;;;;;;;;;;4.08;100.00;100537.38;5052604;28;20028;-56
2021/12/05 16:06:39;;;;;;;;;;;;;;;4.08;100.00;100537.38;5052255;28;19925;-56
2021/12/05 16:09:10;;;;;;;;;;;;;;;4.11;100.00;100545.06;5051283;28;20426;-57
2021/12/05 16:11:37;;;;;;;;;;;;;;;4.00;100.00;100550.72;5048681;28;19932;-56
2021/12/05 16:14:04;;;;;;;;;;;;;;;4.06;100.00;100550.47;5081611;28;19925;-56
2021/12/05 16:16:30;;;;;;;;;;;;;;;4.11;100.00;100557.22;5046528;28;19979;-51
2021/12/05 16:18:58;;;;;;;;;;;;;;;4.07;100.00;100556.50;5052100;28;20336;-57
2021/12/05 16:21:29;;;;;;;;;;;;;;;4.00;100.00;100565.50;5047824;28;19963;-57
2021/12/05 16:23:56;;;;;;;;;;;;;;;4.01;100.00;100567.19;5048166;28;20441;-56
2021/12/05 16:26:24;;;;;;;;;;;;;;;4.01;100.00;100578.44;5048922;28;20303;-57
2021/12/05 16:29:01;;;;;;;;;;;;;;;4.05;100.00;100584.38;5049412;28;19925;-56
2021/12/05 16:31:31;;;;;;;;;;;;;;;4.05;100.00;100586.97;5050947;28;20347;-57
2021/12/05 16:33:59;;;;;;;;;;;;;;;4.00;100.00;100581.09;5051497;28;19964;-57
2021/12/05 16:36:30;;;;;;;;;;;;;;;4.00;100.00;100592.34;5052477;28;19933;-57
2021/12/05 16:39:08;;;;;;;;;;;;;;;3.99;100.00;100595.03;5084755;28;19991;-56
2021/12/05 16:41:34;;;;;;;;;;;;;;;4.07;100.00;100604.19;5052446;28;19925;-51
2021/12/05 16:44:01;;;;;;;;;;;;;;;4.05;100.00;100611.22;5052583;28;19932;-56
2021/12/05 16:46:31;;;;;;;;;;;;;;;3.95;100.00;100604.69;5051178;28;19924;-49
2021/12/05 16:49:00;;;;;;;;;;;;;;;3.95;100.00;100609.06;5052270;28;20285;-51
2021/12/05 16:51:29;;;;;;;;;;;;;;;3.93;100.00;100611.75;5053337;28;19928;-50
2021/12/05 16:54:01;;;;;;;;;;;;;;;3.91;100.00;100621.34;5053096;28;19928;-55
2021/12/05 16:56:38;;;;;;;;;;;;;;;3.94;100.00;100616.03;5052777;28;19925;-56
2021/12/05 16:59:06;;;;;;;;;;;;;;;3.87;100.00;100618.03;5055088;28;19971;-56
2021/12/05 17:01:33;;;;;;;;;;;;;;;3.97;100.00;100621.13;5087164;28;19986;-56
2021/12/05 17:04:00;;;;;;;;;;;;;;;3.95;100.00;100627.28;5053181;28;19968;-56
2021/12/05 17:06:27;;;;;;;;;;;;;;;3.97;100.00;100628.91;5051577;28;19925;-57
2021/12/05 17:08:53;;;;;;;;;;;;;;;3.96;100.00;100636.78;5052735;28;19970;-56
2021/12/05 17:11:22;;;;;;;;;;;;;;;3.88;100.00;100630.13;5051895;28;19975;-57
2021/12/05 17:13:50;;;;;;;;;;;;;;;3.87;100.00;100633.66;5050986;28;19932;-51
2021/12/05 17:16:23;;;;;;;;;;;;;;;3.84;100.00;100641.56;5052959;28;20438;-52
2021/12/05 17:18:53;;;;;;;;;;;;;;;3.88;100.00;100643.13;5052621;28;19925;-57
2021/12/05 17:21:30;;;;;;;;;;;;;;;3.93;100.00;100657.72;5052019;28;20027;-51
2021/12/05 17:23:58;;;;;;;;;;;;;;;4.01;100.00;100655.69;5052206;28;20323;-49
2021/12/05 17:26:31;;;;;;;;;;;;;;;3.98;100.00;100660.97;5050499;28;20465;-57
2021/12/05 17:29:00;;;;;;;;;;;;;;;3.92;100.00;100663.84;5067446;28;19925;-57
2021/12/05 17:31:31;;;;;;;;;;;;;;;3.87;100.00;100664.00;5050680;28;19978;-55
2021/12/05 17:34:01;;;;;;;;;;;;;;;3.84;100.00;100659.78;5083758;28;20020;-57
2021/12/05 17:36:35;;;;;;;;;;;;;;;3.86;100.00;100670.16;5051664;28;19925;-47
2021/12/05 17:39:06;;;;;;;;;;;;;;;3.86;100.00;100668.38;5051815;28;19936;-57
2021/12/05 17:41:32;;;;;;;;;;;;;;;3.84;100.00;100678.00;5052947;28;19936;-56
2021/12/05 17:44:00;;;;;;;;;;;;;;;3.80;100.00;100679.03;5050530;28;19929;-57
2021/12/05 17:46:27;;;;;;;;;;;;;;;3.75;100.00;100680.97;5050415;28;19925;-56
2021/12/05 17:48:54;;;;;;;;;;;;;;;3.75;100.00;100686.19;5051717;28;19924;-57
2021/12/05 17:51:25;;;;;;;;;;;;;;;3.74;100.00;100692.28;5053285;28;19935;-57
2021/12/05 17:53:55;;;;;;;;;;;;;;;3.73;100.00;100703.59;5051660;28;19933;-57
2021/12/05 17:59:05;;;;;;;;;;;;;;;3.72;100.00;100723.56;5051139;28;20816;-56
2021/12/05 18:04:18;;;;;;;;;;;;;;;3.76;100.00;100733.84;5051162;28;19925;-56
2021/12/05 18:06:45;;;;;;;;;;;;;;;3.75;100.00;100740.81;5050101;28;19929;-54
2021/12/05 18:09:12;;;;;;;;;;;;;;;3.73;100.00;100742.59;5053250;28;19979;-56
2021/12/05 18:11:38;;;;;;;;;;;;;;;3.73;100.00;100740.84;5050748;28;19928;-56
2021/12/05 18:14:05;;;;;;;;;;;;;;;3.76;100.00;100750.28;5051033;28;19928;-56
2021/12/05 18:16:32;;;;;;;;;;;;;;;3.74;100.00;100749.50;5050654;28;19929;-55